EDDTEDLW

Guest
Details From EDDT - Berlin Tegel
To EDLW - Dortmund-wickede
Flight Number -
Tags Generated
Created
Modified
Stats Distance 219 nm / 405 km
Max Altitude 0 ft / 0 m
Waypoints 3
Social Downloads 4
Likes 0
Share VATSIM

Download

Looking for another format? Having issues loading an existing format? Contact us
Advertisement - Login to hide

Notes

Generated

Route

EDDT DWI EDLW

ID Type Via Altitude Latitude Longitude Leg Dist Tot Dist Heading (true) Name
O EDDT APT - 0 ft / 0 m 52.55668˚ 13.27499˚ - 0 nm - -
DWI NDB - 0 ft / 0 m 51.52612˚ 7.63439˚ 217 nm 217 nm 256° / 251° DORTMUND NDB
O EDLW APT - 0 ft / 0 m 51.51469˚ 7.60190˚ 1 nm 218 nm 241° / 241° -

Altitude Profile

Advertisement - Login to hide

Weather


0- 5 10 15 20 25 30 35+ Temperature / ° C

Clouds and Precipitation
Forecast for 2018-05-21 12:00 UTC. Updated 2 hours ago

Ground ~20,000 ft ~40,000 ft Winds

EDDT

Details ICAO EDDT (TXL)
Name Berlin Tegel
Region Germany - Civil
Timezone Europe/Berlin (UTC+2.0)
Stats Elevation 122 ft / 37 m (AMSL)
Location 52.559100° 13.290188°
Runways 2
Magnetic Variation 3.810° E

METAR

EDDT 211320Z 08011KT 030V140 CAVOK 23/04 Q1019 TEMPO 10015G25KT

Decode

TAF

TAF EDDT 211100Z 2112/2212 07010KT CAVOK TEMPO 2112/2118 10015G25KT BECMG 2117/2120 07005KT

Decode

Departure Runways

ID Width Length Bearing (true) Bearing (mag) Surface Threshold Offset Overrun Length
08L 151 ft / 46 m 9,885 ft / 3,013 m 80.83° 77.02° Asphalt 0 ft / 0 m 226 ft / 69 m
08R 151 ft / 46 m 7,923 ft / 2,415 m 80.84° 77.03° Asphalt 341 ft / 104 m 207 ft / 63 m
26L 151 ft / 46 m 7,923 ft / 2,415 m 260.87° 257.06° Asphalt 722 ft / 220 m 157 ft / 48 m
26R 151 ft / 46 m 9,885 ft / 3,013 m 260.86° 257.05° Asphalt 0 ft / 0 m 223 ft / 68 m

EDLW

Details ICAO EDLW (DTM)
Name Dortmund-Wickede
Region Germany - Civil
Timezone Europe/Berlin (UTC+2.0)
Stats Elevation 425 ft / 130 m (AMSL)
Location 51.519107° 7.614447°
Runways 1
Magnetic Variation 2.117° E

METAR

EDLW 211250Z 08011KT 040V110 CAVOK 23/08 Q1014

Decode

TAF

TAF EDLW 211100Z 2112/2212 07012KT CAVOK TEMPO 2112/2116 08015G25KT BECMG 2117/2120 09007KT BECMG 2200/2202 VRB03KT PROB30 TEMPO 2202/2205 10010KT TSRA SCT020CB

Decode

Destination Runways

ID Width Length Bearing (true) Bearing (mag) Surface Threshold Offset Overrun Length
06 148 ft / 45 m 6,546 ft / 1,995 m 60.50° 58.38° Asphalt 984 ft / 300 m 197 ft / 60 m
24 148 ft / 45 m 6,546 ft / 1,995 m 240.52° 238.40° Asphalt 984 ft / 300 m 197 ft / 60 m

Approach Navaids

Runway Type Ident Frequency Range Bearing (true) Bearing (mag) Slope Elevation
06 Localiser IDWE 109.15 MHz 18 nm / 33 km 60.52° 58.41° - 425 ft / 130 m (AMSL)
06 Glidescope IDWE 109.15 MHz 10 nm / 19 km 60.51° 58.40° 3.00° 425 ft / 130 m (AMSL)
24 Localiser IDWW 110.30 MHz 18 nm / 33 km 240.49° 238.38° - 425 ft / 130 m (AMSL)
24 Glidescope IDWW 110.30 MHz 10 nm / 19 km 240.51° 238.40° 3.00° 425 ft / 130 m (AMSL)

Popular Alternatives